sensor_id;sensor_type;location;lat;lon;timestamp;P1;durP1;ratioP1;P2;durP2;ratioP2
77822;SDS011;67013;49.730;17.292;2024-03-08T00:02:11;0.60;;;0.50;;
77822;SDS011;67013;49.730;17.292;2024-03-08T00:04:41;0.60;;;0.50;;
77822;SDS011;67013;49.730;17.292;2024-03-08T00:07:11;0.80;;;0.60;;
77822;SDS011;67013;49.730;17.292;2024-03-08T00:09:41;0.50;;;0.50;;
77822;SDS011;67013;49.730;17.292;2024-03-08T00:12:10;0.50;;;0.50;;
77822;SDS011;67013;49.730;17.292;2024-03-08T00:14:40;0.80;;;0.60;;
77822;SDS011;67013;49.730;17.292;2024-03-08T00:17:11;0.70;;;0.70;;
77822;SDS011;67013;49.730;17.292;2024-03-08T00:19:42;0.80;;;0.50;;
77822;SDS011;67013;49.730;17.292;2024-03-08T00:22:11;0.40;;;0.40;;
77822;SDS011;67013;49.730;17.292;2024-03-08T00:24:41;0.60;;;0.50;;
77822;SDS011;67013;49.730;17.292;2024-03-08T00:27:10;1.10;;;0.60;;
77822;SDS011;67013;49.730;17.292;2024-03-08T00:29:39;0.70;;;0.60;;
77822;SDS011;67013;49.730;17.292;2024-03-08T00:32:09;0.70;;;0.70;;
77822;SDS011;67013;49.730;17.292;2024-03-08T00:34:39;0.60;;;0.50;;
77822;SDS011;67013;49.730;17.292;2024-03-08T00:37:09;0.80;;;0.60;;
77822;SDS011;67013;49.730;17.292;2024-03-08T00:39:38;0.60;;;0.60;;
77822;SDS011;67013;49.730;17.292;2024-03-08T00:42:08;0.80;;;0.60;;
77822;SDS011;67013;49.730;17.292;2024-03-08T00:44:38;0.80;;;0.60;;
77822;SDS011;67013;49.730;17.292;2024-03-08T00:47:08;1.00;;;0.70;;
77822;SDS011;67013;49.730;17.292;2024-03-08T00:49:38;0.80;;;0.70;;
77822;SDS011;67013;49.730;17.292;2024-03-08T00:52:08;0.70;;;0.50;;
77822;SDS011;67013;49.730;17.292;2024-03-08T00:54:39;0.90;;;0.60;;
77822;SDS011;67013;49.730;17.292;2024-03-08T00:57:09;0.80;;;0.60;;
77822;SDS011;67013;49.730;17.292;2024-03-08T00:59:39;0.50;;;0.50;;
77822;SDS011;67013;49.730;17.292;2024-03-08T01:02:08;0.70;;;0.50;;
77822;SDS011;67013;49.730;17.292;2024-03-08T01:04:38;0.70;;;0.60;;
77822;SDS011;67013;49.730;17.292;2024-03-08T01:07:07;0.50;;;0.50;;
77822;SDS011;67013;49.730;17.292;2024-03-08T01:09:37;0.50;;;0.50;;
77822;SDS011;67013;49.730;17.292;2024-03-08T01:12:07;0.80;;;0.60;;
77822;SDS011;67013;49.730;17.292;2024-03-08T01:14:37;0.90;;;0.60;;
77822;SDS011;67013;49.730;17.292;2024-03-08T01:17:06;1.00;;;0.90;;
77822;SDS011;67013;49.730;17.292;2024-03-08T01:19:36;0.90;;;0.70;;
77822;SDS011;67013;49.730;17.292;2024-03-08T01:22:05;0.70;;;0.60;;
77822;SDS011;67013;49.730;17.292;2024-03-08T01:24:35;0.70;;;0.50;;
77822;SDS011;67013;49.730;17.292;2024-03-08T01:27:05;0.60;;;0.60;;
77822;SDS011;67013;49.730;17.292;2024-03-08T01:29:35;0.80;;;0.50;;
77822;SDS011;67013;49.730;17.292;2024-03-08T01:32:05;0.80;;;0.70;;
77822;SDS011;67013;49.730;17.292;2024-03-08T01:34:35;0.60;;;0.50;;
77822;SDS011;67013;49.730;17.292;2024-03-08T01:37:04;0.80;;;0.70;;
77822;SDS011;67013;49.730;17.292;2024-03-08T01:39:34;0.60;;;0.50;;
77822;SDS011;67013;49.730;17.292;2024-03-08T01:42:04;0.90;;;0.60;;
77822;SDS011;67013;49.730;17.292;2024-03-08T01:44:34;0.40;;;0.40;;
77822;SDS011;67013;49.730;17.292;2024-03-08T01:47:03;0.60;;;0.50;;
77822;SDS011;67013;49.730;17.292;2024-03-08T01:49:33;0.60;;;0.50;;
77822;SDS011;67013;49.730;17.292;2024-03-08T01:52:03;0.70;;;0.60;;
77822;SDS011;67013;49.730;17.292;2024-03-08T01:54:33;1.00;;;0.80;;
77822;SDS011;67013;49.730;17.292;2024-03-08T01:57:03;0.90;;;0.60;;
77822;SDS011;67013;49.730;17.292;2024-03-08T01:59:33;0.80;;;0.70;;
77822;SDS011;67013;49.730;17.292;2024-03-08T02:02:03;0.90;;;0.60;;
77822;SDS011;67013;49.730;17.292;2024-03-08T02:04:35;0.50;;;0.50;;
77822;SDS011;67013;49.730;17.292;2024-03-08T02:07:05;0.80;;;0.60;;
77822;SDS011;67013;49.730;17.292;2024-03-08T02:09:35;0.80;;;0.60;;
77822;SDS011;67013;49.730;17.292;2024-03-08T02:12:05;0.80;;;0.60;;
77822;SDS011;67013;49.730;17.292;2024-03-08T02:14:35;0.70;;;0.60;;
77822;SDS011;67013;49.730;17.292;2024-03-08T02:17:06;0.70;;;0.50;;
77822;SDS011;67013;49.730;17.292;2024-03-08T02:19:36;0.80;;;0.60;;
77822;SDS011;67013;49.730;17.292;2024-03-08T02:22:06;0.70;;;0.50;;
77822;SDS011;67013;49.730;17.292;2024-03-08T02:24:35;1.10;;;0.80;;
77822;SDS011;67013;49.730;17.292;2024-03-08T02:27:05;0.90;;;0.70;;
77822;SDS011;67013;49.730;17.292;2024-03-08T02:29:38;0.70;;;0.60;;
77822;SDS011;67013;49.730;17.292;2024-03-08T02:32:10;0.60;;;0.50;;
77822;SDS011;67013;49.730;17.292;2024-03-08T02:34:40;0.70;;;0.60;;
77822;SDS011;67013;49.730;17.292;2024-03-08T02:37:10;0.50;;;0.50;;
77822;SDS011;67013;49.730;17.292;2024-03-08T02:39:39;0.70;;;0.60;;
77822;SDS011;67013;49.730;17.292;2024-03-08T02:42:09;0.40;;;0.40;;
77822;SDS011;67013;49.730;17.292;2024-03-08T02:44:39;0.90;;;0.80;;
77822;SDS011;67013;49.730;17.292;2024-03-08T02:47:11;1.00;;;0.90;;
77822;SDS011;67013;49.730;17.292;2024-03-08T02:49:40;0.50;;;0.50;;
77822;SDS011;67013;49.730;17.292;2024-03-08T02:52:10;0.90;;;0.70;;
77822;SDS011;67013;49.730;17.292;2024-03-08T02:54:39;1.00;;;0.70;;
77822;SDS011;67013;49.730;17.292;2024-03-08T02:57:10;0.60;;;0.50;;
77822;SDS011;67013;49.730;17.292;2024-03-08T02:59:41;0.80;;;0.60;;
77822;SDS011;67013;49.730;17.292;2024-03-08T03:02:10;0.80;;;0.60;;
77822;SDS011;67013;49.730;17.292;2024-03-08T03:04:41;0.60;;;0.50;;
77822;SDS011;67013;49.730;17.292;2024-03-08T03:07:11;0.70;;;0.60;;
77822;SDS011;67013;49.730;17.292;2024-03-08T03:09:40;0.80;;;0.70;;
77822;SDS011;67013;49.730;17.292;2024-03-08T03:12:09;0.70;;;0.60;;
77822;SDS011;67013;49.730;17.292;2024-03-08T03:14:40;0.70;;;0.70;;
77822;SDS011;67013;49.730;17.292;2024-03-08T03:17:10;0.70;;;0.70;;
77822;SDS011;67013;49.730;17.292;2024-03-08T03:19:41;0.80;;;0.70;;
77822;SDS011;67013;49.730;17.292;2024-03-08T03:22:11;0.80;;;0.60;;
77822;SDS011;67013;49.730;17.292;2024-03-08T03:24:42;0.90;;;0.60;;
77822;SDS011;67013;49.730;17.292;2024-03-08T03:27:12;0.80;;;0.50;;
77822;SDS011;67013;49.730;17.292;2024-03-08T03:29:42;0.80;;;0.70;;
77822;SDS011;67013;49.730;17.292;2024-03-08T03:32:13;0.40;;;0.40;;
77822;SDS011;67013;49.730;17.292;2024-03-08T03:34:45;0.80;;;0.70;;
77822;SDS011;67013;49.730;17.292;2024-03-08T03:37:14;1.00;;;0.80;;
77822;SDS011;67013;49.730;17.292;2024-03-08T03:39:44;0.90;;;0.60;;
77822;SDS011;67013;49.730;17.292;2024-03-08T03:42:16;0.40;;;0.40;;
77822;SDS011;67013;49.730;17.292;2024-03-08T03:44:46;0.80;;;0.60;;
77822;SDS011;67013;49.730;17.292;2024-03-08T03:47:16;0.60;;;0.50;;
77822;SDS011;67013;49.730;17.292;2024-03-08T03:49:45;0.60;;;0.50;;
77822;SDS011;67013;49.730;17.292;2024-03-08T03:52:15;0.70;;;0.60;;
77822;SDS011;67013;49.730;17.292;2024-03-08T03:54:45;0.80;;;0.70;;
77822;SDS011;67013;49.730;17.292;2024-03-08T03:57:16;0.70;;;0.60;;
77822;SDS011;67013;49.730;17.292;2024-03-08T03:59:45;1.00;;;0.80;;
77822;SDS011;67013;49.730;17.292;2024-03-08T04:02:16;0.90;;;0.70;;
77822;SDS011;67013;49.730;17.292;2024-03-08T04:04:46;0.60;;;0.50;;
77822;SDS011;67013;49.730;17.292;2024-03-08T04:07:16;0.80;;;0.60;;
77822;SDS011;67013;49.730;17.292;2024-03-08T04:09:45;0.70;;;0.60;;
77822;SDS011;67013;49.730;17.292;2024-03-08T04:12:15;1.10;;;0.70;;
77822;SDS011;67013;49.730;17.292;2024-03-08T04:14:44;0.60;;;0.60;;
77822;SDS011;67013;49.730;17.292;2024-03-08T04:17:13;0.60;;;0.50;;
77822;SDS011;67013;49.730;17.292;2024-03-08T04:19:44;0.80;;;0.60;;
77822;SDS011;67013;49.730;17.292;2024-03-08T04:22:14;1.00;;;0.80;;
77822;SDS011;67013;49.730;17.292;2024-03-08T04:24:44;0.70;;;0.60;;
77822;SDS011;67013;49.730;17.292;2024-03-08T04:27:14;0.50;;;0.50;;
77822;SDS011;67013;49.730;17.292;2024-03-08T04:29:44;1.00;;;0.70;;
77822;SDS011;67013;49.730;17.292;2024-03-08T04:32:13;0.50;;;0.50;;
77822;SDS011;67013;49.730;17.292;2024-03-08T04:34:43;1.00;;;0.70;;
77822;SDS011;67013;49.730;17.292;2024-03-08T04:37:13;0.60;;;0.50;;
77822;SDS011;67013;49.730;17.292;2024-03-08T04:39:45;0.80;;;0.60;;
77822;SDS011;67013;49.730;17.292;2024-03-08T04:42:14;0.80;;;0.70;;
77822;SDS011;67013;49.730;17.292;2024-03-08T04:44:44;0.70;;;0.60;;
77822;SDS011;67013;49.730;17.292;2024-03-08T04:47:14;1.00;;;0.70;;
77822;SDS011;67013;49.730;17.292;2024-03-08T04:49:44;0.60;;;0.60;;
77822;SDS011;67013;49.730;17.292;2024-03-08T04:52:13;0.70;;;0.60;;
77822;SDS011;67013;49.730;17.292;2024-03-08T04:54:43;0.90;;;0.70;;
77822;SDS011;67013;49.730;17.292;2024-03-08T04:57:12;0.90;;;0.60;;
77822;SDS011;67013;49.730;17.292;2024-03-08T04:59:44;0.50;;;0.50;;
77822;SDS011;67013;49.730;17.292;2024-03-08T05:02:15;1.00;;;0.80;;
77822;SDS011;67013;49.730;17.292;2024-03-08T05:04:45;0.70;;;0.60;;
77822;SDS011;67013;49.730;17.292;2024-03-08T05:07:14;0.60;;;0.50;;
77822;SDS011;67013;49.730;17.292;2024-03-08T05:09:44;0.70;;;0.60;;
77822;SDS011;67013;49.730;17.292;2024-03-08T05:12:18;0.90;;;0.70;;
77822;SDS011;67013;49.730;17.292;2024-03-08T05:14:49;0.60;;;0.50;;
77822;SDS011;67013;49.730;17.292;2024-03-08T05:17:18;0.80;;;0.60;;
77822;SDS011;67013;49.730;17.292;2024-03-08T05:19:50;0.80;;;0.70;;
77822;SDS011;67013;49.730;17.292;2024-03-08T05:22:20;0.60;;;0.60;;
77822;SDS011;67013;49.730;17.292;2024-03-08T05:24:49;0.80;;;0.60;;
77822;SDS011;67013;49.730;17.292;2024-03-08T05:27:18;0.60;;;0.50;;
77822;SDS011;67013;49.730;17.292;2024-03-08T05:29:48;0.50;;;0.40;;
77822;SDS011;67013;49.730;17.292;2024-03-08T05:32:18;0.80;;;0.60;;
77822;SDS011;67013;49.730;17.292;2024-03-08T05:34:47;0.80;;;0.60;;
77822;SDS011;67013;49.730;17.292;2024-03-08T05:37:17;0.90;;;0.70;;
77822;SDS011;67013;49.730;17.292;2024-03-08T05:39:47;0.60;;;0.50;;
77822;SDS011;67013;49.730;17.292;2024-03-08T05:42:16;0.90;;;0.70;;
77822;SDS011;67013;49.730;17.292;2024-03-08T05:44:46;0.90;;;0.70;;
77822;SDS011;67013;49.730;17.292;2024-03-08T05:47:16;0.80;;;0.60;;
77822;SDS011;67013;49.730;17.292;2024-03-08T05:49:46;0.60;;;0.50;;
77822;SDS011;67013;49.730;17.292;2024-03-08T05:52:15;0.70;;;0.50;;
77822;SDS011;67013;49.730;17.292;2024-03-08T05:54:45;0.90;;;0.70;;
77822;SDS011;67013;49.730;17.292;2024-03-08T05:57:14;0.50;;;0.50;;
77822;SDS011;67013;49.730;17.292;2024-03-08T05:59:44;0.40;;;0.40;;
77822;SDS011;67013;49.730;17.292;2024-03-08T06:02:14;0.80;;;0.60;;
77822;SDS011;67013;49.730;17.292;2024-03-08T06:04:46;0.60;;;0.50;;
77822;SDS011;67013;49.730;17.292;2024-03-08T06:07:16;0.90;;;0.60;;
77822;SDS011;67013;49.730;17.292;2024-03-08T06:09:46;0.80;;;0.60;;
77822;SDS011;67013;49.730;17.292;2024-03-08T06:12:16;0.70;;;0.60;;
77822;SDS011;67013;49.730;17.292;2024-03-08T06:14:46;0.70;;;0.50;;
77822;SDS011;67013;49.730;17.292;2024-03-08T06:17:16;0.70;;;0.60;;
77822;SDS011;67013;49.730;17.292;2024-03-08T06:19:45;0.60;;;0.50;;
77822;SDS011;67013;49.730;17.292;2024-03-08T06:22:15;0.80;;;0.70;;
77822;SDS011;67013;49.730;17.292;2024-03-08T06:24:45;0.90;;;0.60;;
77822;SDS011;67013;49.730;17.292;2024-03-08T06:27:15;0.90;;;0.70;;
77822;SDS011;67013;49.730;17.292;2024-03-08T06:29:44;0.70;;;0.70;;
77822;SDS011;67013;49.730;17.292;2024-03-08T06:32:15;0.70;;;0.50;;
77822;SDS011;67013;49.730;17.292;2024-03-08T06:34:45;0.60;;;0.50;;
77822;SDS011;67013;49.730;17.292;2024-03-08T06:37:15;0.60;;;0.50;;
77822;SDS011;67013;49.730;17.292;2024-03-08T06:39:48;0.50;;;0.40;;
77822;SDS011;67013;49.730;17.292;2024-03-08T06:42:20;0.50;;;0.50;;
77822;SDS011;67013;49.730;17.292;2024-03-08T06:44:50;0.50;;;0.50;;
77822;SDS011;67013;49.730;17.292;2024-03-08T06:47:22;0.70;;;0.60;;
77822;SDS011;67013;49.730;17.292;2024-03-08T06:49:52;0.70;;;0.70;;
77822;SDS011;67013;49.730;17.292;2024-03-08T06:52:21;0.50;;;0.50;;
77822;SDS011;67013;49.730;17.292;2024-03-08T06:54:51;0.40;;;0.40;;
77822;SDS011;67013;49.730;17.292;2024-03-08T06:57:20;0.30;;;0.30;;
77822;SDS011;67013;49.730;17.292;2024-03-08T06:59:49;0.70;;;0.70;;
77822;SDS011;67013;49.730;17.292;2024-03-08T07:02:21;0.40;;;0.40;;
77822;SDS011;67013;49.730;17.292;2024-03-08T07:04:51;0.60;;;0.50;;
77822;SDS011;67013;49.730;17.292;2024-03-08T07:07:20;0.50;;;0.50;;
77822;SDS011;67013;49.730;17.292;2024-03-08T07:09:50;0.50;;;0.50;;
77822;SDS011;67013;49.730;17.292;2024-03-08T07:12:19;0.50;;;0.50;;
77822;SDS011;67013;49.730;17.292;2024-03-08T07:14:49;0.50;;;0.50;;
77822;SDS011;67013;49.730;17.292;2024-03-08T07:17:20;0.30;;;0.30;;
77822;SDS011;67013;49.730;17.292;2024-03-08T07:19:51;0.30;;;0.30;;
77822;SDS011;67013;49.730;17.292;2024-03-08T07:22:20;0.60;;;0.50;;
77822;SDS011;67013;49.730;17.292;2024-03-08T07:24:50;0.40;;;0.40;;
77822;SDS011;67013;49.730;17.292;2024-03-08T07:27:41;0.50;;;0.50;;
77822;SDS011;67013;49.730;17.292;2024-03-08T07:30:14;0.60;;;0.50;;
77822;SDS011;67013;49.730;17.292;2024-03-08T07:33:00;0.50;;;0.50;;
77822;SDS011;67013;49.730;17.292;2024-03-08T07:35:29;0.30;;;0.30;;
77822;SDS011;67013;49.730;17.292;2024-03-08T07:37:59;0.40;;;0.40;;
77822;SDS011;67013;49.730;17.292;2024-03-08T07:40:29;0.30;;;0.30;;
77822;SDS011;67013;49.730;17.292;2024-03-08T07:42:58;0.40;;;0.40;;
77822;SDS011;67013;49.730;17.292;2024-03-08T07:45:28;0.50;;;0.50;;
77822;SDS011;67013;49.730;17.292;2024-03-08T07:47:58;0.40;;;0.40;;
77822;SDS011;67013;49.730;17.292;2024-03-08T07:50:29;0.70;;;0.50;;
77822;SDS011;67013;49.730;17.292;2024-03-08T07:52:59;0.40;;;0.40;;
77822;SDS011;67013;49.730;17.292;2024-03-08T07:55:30;0.40;;;0.40;;
77822;SDS011;67013;49.730;17.292;2024-03-08T07:57:59;0.40;;;0.40;;
77822;SDS011;67013;49.730;17.292;2024-03-08T08:00:29;0.40;;;0.40;;
77822;SDS011;67013;49.730;17.292;2024-03-08T08:02:59;0.30;;;0.30;;
77822;SDS011;67013;49.730;17.292;2024-03-08T08:05:29;0.50;;;0.50;;
77822;SDS011;67013;49.730;17.292;2024-03-08T08:08:01;0.40;;;0.40;;
77822;SDS011;67013;49.730;17.292;2024-03-08T08:10:32;0.50;;;0.50;;
77822;SDS011;67013;49.730;17.292;2024-03-08T08:13:02;0.40;;;0.40;;
77822;SDS011;67013;49.730;17.292;2024-03-08T08:15:32;0.40;;;0.40;;
77822;SDS011;67013;49.730;17.292;2024-03-08T08:18:02;0.50;;;0.50;;
77822;SDS011;67013;49.730;17.292;2024-03-08T08:20:32;0.40;;;0.40;;
77822;SDS011;67013;49.730;17.292;2024-03-08T08:23:01;0.50;;;0.50;;
77822;SDS011;67013;49.730;17.292;2024-03-08T08:25:31;0.40;;;0.40;;
77822;SDS011;67013;49.730;17.292;2024-03-08T08:28:01;0.50;;;0.50;;
77822;SDS011;67013;49.730;17.292;2024-03-08T08:30:31;0.40;;;0.40;;
77822;SDS011;67013;49.730;17.292;2024-03-08T08:33:00;0.70;;;0.50;;
77822;SDS011;67013;49.730;17.292;2024-03-08T08:35:31;0.40;;;0.40;;
77822;SDS011;67013;49.730;17.292;2024-03-08T08:38:01;0.40;;;0.40;;
77822;SDS011;67013;49.730;17.292;2024-03-08T08:40:31;0.40;;;0.40;;
77822;SDS011;67013;49.730;17.292;2024-03-08T08:43:01;0.40;;;0.40;;
77822;SDS011;67013;49.730;17.292;2024-03-08T08:45:32;0.50;;;0.50;;
77822;SDS011;67013;49.730;17.292;2024-03-08T08:48:01;0.50;;;0.50;;
77822;SDS011;67013;49.730;17.292;2024-03-08T08:50:31;0.50;;;0.50;;
77822;SDS011;67013;49.730;17.292;2024-03-08T08:53:01;0.40;;;0.40;;
77822;SDS011;67013;49.730;17.292;2024-03-08T08:55:33;0.40;;;0.40;;
77822;SDS011;67013;49.730;17.292;2024-03-08T08:58:04;0.30;;;0.30;;
77822;SDS011;67013;49.730;17.292;2024-03-08T09:00:33;0.40;;;0.40;;
77822;SDS011;67013;49.730;17.292;2024-03-08T09:03:04;0.40;;;0.40;;
77822;SDS011;67013;49.730;17.292;2024-03-08T09:05:34;0.30;;;0.30;;
77822;SDS011;67013;49.730;17.292;2024-03-08T09:08:04;0.30;;;0.30;;
77822;SDS011;67013;49.730;17.292;2024-03-08T09:10:35;0.40;;;0.40;;
77822;SDS011;67013;49.730;17.292;2024-03-08T09:13:05;0.50;;;0.50;;
77822;SDS011;67013;49.730;17.292;2024-03-08T09:15:36;0.30;;;0.30;;
77822;SDS011;67013;49.730;17.292;2024-03-08T09:18:07;0.30;;;0.30;;
77822;SDS011;67013;49.730;17.292;2024-03-08T09:20:36;0.30;;;0.30;;
77822;SDS011;67013;49.730;17.292;2024-03-08T09:23:07;0.40;;;0.40;;
77822;SDS011;67013;49.730;17.292;2024-03-08T09:25:37;0.40;;;0.40;;
77822;SDS011;67013;49.730;17.292;2024-03-08T09:28:07;0.40;;;0.40;;
77822;SDS011;67013;49.730;17.292;2024-03-08T09:30:38;0.40;;;0.40;;
77822;SDS011;67013;49.730;17.292;2024-03-08T09:33:08;0.40;;;0.40;;
77822;SDS011;67013;49.730;17.292;2024-03-08T09:35:38;0.40;;;0.40;;
77822;SDS011;67013;49.730;17.292;2024-03-08T09:38:07;0.40;;;0.40;;
77822;SDS011;67013;49.730;17.292;2024-03-08T09:40:40;0.30;;;0.30;;
77822;SDS011;67013;49.730;17.292;2024-03-08T09:43:10;0.40;;;0.40;;
77822;SDS011;67013;49.730;17.292;2024-03-08T09:45:40;0.40;;;0.40;;
77822;SDS011;67013;49.730;17.292;2024-03-08T09:48:13;0.40;;;0.40;;
77822;SDS011;67013;49.730;17.292;2024-03-08T09:50:45;0.30;;;0.30;;
77822;SDS011;67013;49.730;17.292;2024-03-08T09:53:15;0.40;;;0.40;;
77822;SDS011;67013;49.730;17.292;2024-03-08T09:55:45;0.30;;;0.30;;
77822;SDS011;67013;49.730;17.292;2024-03-08T09:58:16;0.40;;;0.40;;
77822;SDS011;67013;49.730;17.292;2024-03-08T10:01:03;0.50;;;0.50;;
77822;SDS011;67013;49.730;17.292;2024-03-08T10:03:32;0.30;;;0.30;;
77822;SDS011;67013;49.730;17.292;2024-03-08T10:06:02;0.50;;;0.50;;
77822;SDS011;67013;49.730;17.292;2024-03-08T10:08:36;0.50;;;0.50;;
77822;SDS011;67013;49.730;17.292;2024-03-08T10:11:06;0.40;;;0.40;;
77822;SDS011;67013;49.730;17.292;2024-03-08T10:13:38;0.40;;;0.40;;
77822;SDS011;67013;49.730;17.292;2024-03-08T10:16:09;0.40;;;0.40;;
77822;SDS011;67013;49.730;17.292;2024-03-08T10:18:38;0.40;;;0.40;;
77822;SDS011;67013;49.730;17.292;2024-03-08T10:21:09;0.40;;;0.40;;
77822;SDS011;67013;49.730;17.292;2024-03-08T10:23:41;0.30;;;0.30;;
77822;SDS011;67013;49.730;17.292;2024-03-08T10:26:12;0.30;;;0.30;;
77822;SDS011;67013;49.730;17.292;2024-03-08T10:28:45;0.40;;;0.40;;
77822;SDS011;67013;49.730;17.292;2024-03-08T10:31:15;0.50;;;0.50;;
77822;SDS011;67013;49.730;17.292;2024-03-08T10:33:46;0.40;;;0.40;;
77822;SDS011;67013;49.730;17.292;2024-03-08T10:36:15;0.20;;;0.20;;
77822;SDS011;67013;49.730;17.292;2024-03-08T10:38:46;0.50;;;0.40;;
77822;SDS011;67013;49.730;17.292;2024-03-08T10:41:19;0.40;;;0.40;;
77822;SDS011;67013;49.730;17.292;2024-03-08T10:44:01;0.50;;;0.50;;
77822;SDS011;67013;49.730;17.292;2024-03-08T10:46:42;0.50;;;0.50;;
77822;SDS011;67013;49.730;17.292;2024-03-08T10:49:24;0.50;;;0.50;;
77822;SDS011;67013;49.730;17.292;2024-03-08T10:52:01;0.40;;;0.40;;
77822;SDS011;67013;49.730;17.292;2024-03-08T10:54:36;0.50;;;0.50;;
77822;SDS011;67013;49.730;17.292;2024-03-08T10:57:07;0.60;;;0.60;;
77822;SDS011;67013;49.730;17.292;2024-03-08T10:59:39;0.30;;;0.30;;
77822;SDS011;67013;49.730;17.292;2024-03-08T11:02:10;0.30;;;0.30;;
77822;SDS011;67013;49.730;17.292;2024-03-08T11:04:46;0.30;;;0.30;;
77822;SDS011;67013;49.730;17.292;2024-03-08T11:07:17;0.30;;;0.30;;
77822;SDS011;67013;49.730;17.292;2024-03-08T11:09:48;0.40;;;0.40;;
77822;SDS011;67013;49.730;17.292;2024-03-08T11:12:22;0.50;;;0.50;;
77822;SDS011;67013;49.730;17.292;2024-03-08T11:14:53;0.30;;;0.30;;
77822;SDS011;67013;49.730;17.292;2024-03-08T11:17:39;0.30;;;0.30;;
77822;SDS011;67013;49.730;17.292;2024-03-08T11:20:12;0.30;;;0.30;;
77822;SDS011;67013;49.730;17.292;2024-03-08T11:22:47;0.30;;;0.30;;
77822;SDS011;67013;49.730;17.292;2024-03-08T11:25:34;0.50;;;0.50;;
77822;SDS011;67013;49.730;17.292;2024-03-08T11:28:09;0.40;;;0.40;;
77822;SDS011;67013;49.730;17.292;2024-03-08T11:30:47;0.40;;;0.40;;
77822;SDS011;67013;49.730;17.292;2024-03-08T11:33:53;0.30;;;0.30;;
77822;SDS011;67013;49.730;17.292;2024-03-08T11:36:24;0.40;;;0.40;;
77822;SDS011;67013;49.730;17.292;2024-03-08T11:38:54;0.40;;;0.40;;
77822;SDS011;67013;49.730;17.292;2024-03-08T11:41:36;0.30;;;0.30;;
77822;SDS011;67013;49.730;17.292;2024-03-08T11:44:05;0.30;;;0.30;;
77822;SDS011;67013;49.730;17.292;2024-03-08T11:46:38;0.30;;;0.30;;
77822;SDS011;67013;49.730;17.292;2024-03-08T11:49:13;0.40;;;0.40;;
77822;SDS011;67013;49.730;17.292;2024-03-08T11:51:43;0.30;;;0.30;;
77822;SDS011;67013;49.730;17.292;2024-03-08T11:54:12;0.40;;;0.40;;
77822;SDS011;67013;49.730;17.292;2024-03-08T11:56:42;0.50;;;0.40;;
77822;SDS011;67013;49.730;17.292;2024-03-08T11:59:14;0.40;;;0.40;;
77822;SDS011;67013;49.730;17.292;2024-03-08T12:01:44;0.30;;;0.30;;
77822;SDS011;67013;49.730;17.292;2024-03-08T12:04:30;0.30;;;0.30;;
77822;SDS011;67013;49.730;17.292;2024-03-08T12:07:02;0.30;;;0.30;;
77822;SDS011;67013;49.730;17.292;2024-03-08T12:09:39;0.30;;;0.30;;
77822;SDS011;67013;49.730;17.292;2024-03-08T12:12:13;0.20;;;0.20;;
77822;SDS011;67013;49.730;17.292;2024-03-08T12:14:44;0.30;;;0.30;;
77822;SDS011;67013;49.730;17.292;2024-03-08T12:17:14;0.40;;;0.40;;
77822;SDS011;67013;49.730;17.292;2024-03-08T12:19:47;0.20;;;0.20;;
77822;SDS011;67013;49.730;17.292;2024-03-08T12:22:16;0.30;;;0.30;;
77822;SDS011;67013;49.730;17.292;2024-03-08T12:25:02;0.40;;;0.40;;
77822;SDS011;67013;49.730;17.292;2024-03-08T12:27:37;0.40;;;0.40;;
77822;SDS011;67013;49.730;17.292;2024-03-08T12:30:18;0.30;;;0.30;;
77822;SDS011;67013;49.730;17.292;2024-03-08T12:32:50;0.20;;;0.20;;
77822;SDS011;67013;49.730;17.292;2024-03-08T12:37:50;0.30;;;0.30;;
77822;SDS011;67013;49.730;17.292;2024-03-08T12:40:21;0.30;;;0.30;;
77822;SDS011;67013;49.730;17.292;2024-03-08T12:42:56;0.30;;;0.30;;
77822;SDS011;67013;49.730;17.292;2024-03-08T12:45:26;0.50;;;0.50;;
77822;SDS011;67013;49.730;17.292;2024-03-08T12:47:55;0.30;;;0.30;;
77822;SDS011;67013;49.730;17.292;2024-03-08T12:50:26;0.30;;;0.30;;
77822;SDS011;67013;49.730;17.292;2024-03-08T12:52:56;0.30;;;0.30;;
77822;SDS011;67013;49.730;17.292;2024-03-08T12:55:26;0.30;;;0.30;;
77822;SDS011;67013;49.730;17.292;2024-03-08T12:57:56;0.30;;;0.30;;
77822;SDS011;67013;49.730;17.292;2024-03-08T13:00:27;0.50;;;0.50;;
77822;SDS011;67013;49.730;17.292;2024-03-08T13:02:56;0.40;;;0.40;;
77822;SDS011;67013;49.730;17.292;2024-03-08T13:05:26;0.40;;;0.40;;
77822;SDS011;67013;49.730;17.292;2024-03-08T13:07:56;0.40;;;0.40;;
77822;SDS011;67013;49.730;17.292;2024-03-08T13:10:26;0.30;;;0.30;;
77822;SDS011;67013;49.730;17.292;2024-03-08T13:12:55;0.40;;;0.40;;
77822;SDS011;67013;49.730;17.292;2024-03-08T13:15:25;0.30;;;0.30;;
77822;SDS011;67013;49.730;17.292;2024-03-08T13:17:56;0.30;;;0.30;;
77822;SDS011;67013;49.730;17.292;2024-03-08T13:20:26;0.30;;;0.30;;
77822;SDS011;67013;49.730;17.292;2024-03-08T13:22:56;0.30;;;0.30;;
77822;SDS011;67013;49.730;17.292;2024-03-08T13:25:28;0.30;;;0.30;;
77822;SDS011;67013;49.730;17.292;2024-03-08T13:27:57;0.30;;;0.30;;
77822;SDS011;67013;49.730;17.292;2024-03-08T13:30:27;0.20;;;0.20;;
77822;SDS011;67013;49.730;17.292;2024-03-08T13:32:57;0.30;;;0.30;;
77822;SDS011;67013;49.730;17.292;2024-03-08T13:35:26;0.50;;;0.50;;
77822;SDS011;67013;49.730;17.292;2024-03-08T13:37:57;0.30;;;0.30;;
77822;SDS011;67013;49.730;17.292;2024-03-08T13:40:29;0.50;;;0.50;;
77822;SDS011;67013;49.730;17.292;2024-03-08T13:43:07;0.50;;;0.50;;
77822;SDS011;67013;49.730;17.292;2024-03-08T13:45:37;0.40;;;0.40;;
77822;SDS011;67013;49.730;17.292;2024-03-08T13:48:07;0.40;;;0.40;;
77822;SDS011;67013;49.730;17.292;2024-03-08T13:50:39;0.40;;;0.40;;
77822;SDS011;67013;49.730;17.292;2024-03-08T13:53:08;0.30;;;0.30;;
77822;SDS011;67013;49.730;17.292;2024-03-08T13:55:39;0.30;;;0.30;;
77822;SDS011;67013;49.730;17.292;2024-03-08T13:58:09;0.30;;;0.30;;
77822;SDS011;67013;49.730;17.292;2024-03-08T14:00:40;0.40;;;0.40;;
77822;SDS011;67013;49.730;17.292;2024-03-08T14:03:12;0.20;;;0.20;;
77822;SDS011;67013;49.730;17.292;2024-03-08T14:05:42;0.40;;;0.30;;
77822;SDS011;67013;49.730;17.292;2024-03-08T14:08:12;0.50;;;0.40;;
77822;SDS011;67013;49.730;17.292;2024-03-08T14:10:42;0.30;;;0.30;;
77822;SDS011;67013;49.730;17.292;2024-03-08T14:13:15;0.30;;;0.30;;
77822;SDS011;67013;49.730;17.292;2024-03-08T14:15:45;0.30;;;0.30;;
77822;SDS011;67013;49.730;17.292;2024-03-08T14:18:15;0.40;;;0.40;;
77822;SDS011;67013;49.730;17.292;2024-03-08T14:20:45;0.40;;;0.40;;
77822;SDS011;67013;49.730;17.292;2024-03-08T14:23:14;0.30;;;0.30;;
77822;SDS011;67013;49.730;17.292;2024-03-08T14:25:44;0.40;;;0.40;;
77822;SDS011;67013;49.730;17.292;2024-03-08T14:28:16;0.40;;;0.40;;
77822;SDS011;67013;49.730;17.292;2024-03-08T14:30:45;0.40;;;0.40;;
77822;SDS011;67013;49.730;17.292;2024-03-08T14:33:16;0.40;;;0.40;;
77822;SDS011;67013;49.730;17.292;2024-03-08T14:35:45;0.40;;;0.40;;
77822;SDS011;67013;49.730;17.292;2024-03-08T14:38:16;0.30;;;0.30;;
77822;SDS011;67013;49.730;17.292;2024-03-08T14:40:45;0.40;;;0.40;;
77822;SDS011;67013;49.730;17.292;2024-03-08T14:43:15;0.30;;;0.30;;
77822;SDS011;67013;49.730;17.292;2024-03-08T14:45:46;0.60;;;0.50;;
77822;SDS011;67013;49.730;17.292;2024-03-08T14:48:17;0.50;;;0.50;;
77822;SDS011;67013;49.730;17.292;2024-03-08T14:50:48;0.30;;;0.30;;
77822;SDS011;67013;49.730;17.292;2024-03-08T14:53:17;0.40;;;0.40;;
77822;SDS011;67013;49.730;17.292;2024-03-08T14:55:46;0.40;;;0.40;;
77822;SDS011;67013;49.730;17.292;2024-03-08T14:58:16;0.40;;;0.40;;